createdAt,value
2023-09-12T00:00:29.373Z,98502.09
2023-09-12T00:02:57.275Z,98509.91
2023-09-12T00:05:26.537Z,98514.16
2023-09-12T00:07:54.882Z,98515.81
2023-09-12T00:10:22.854Z,98525.41
2023-09-12T00:12:50.675Z,98518.56
2023-09-12T00:15:20.870Z,98516.09
2023-09-12T00:17:49.726Z,98516.09
2023-09-12T00:20:17.850Z,98505.91
2023-09-12T00:22:47.712Z,98505.09
2023-09-12T00:25:15.547Z,98507.84
2023-09-12T00:27:43.371Z,98504.41
2023-09-12T00:30:12.371Z,98502.78
2023-09-12T00:32:40.333Z,98500.31
2023-09-12T00:35:09.101Z,98487.53
2023-09-12T00:37:36.874Z,98482.59
2023-09-12T00:40:07.384Z,98468.19
2023-09-12T00:42:35.233Z,98446.06
2023-09-12T00:45:03.254Z,98424.81
2023-09-12T00:47:32.668Z,98402.72
2023-09-12T00:50:02.223Z,98391.75
2023-09-12T00:52:31.570Z,98376.53
2023-09-12T00:54:59.825Z,98373.09
2023-09-12T00:57:29.119Z,98370.75
2023-09-12T00:59:57.964Z,98364.88
2023-09-12T01:02:27.063Z,98359.78
2023-09-12T01:04:55.269Z,98352.13
2023-09-12T01:07:23.131Z,98347.16
2023-09-12T01:09:50.985Z,98335.25
2023-09-12T01:12:19.060Z,98328.53
2023-09-12T01:14:48.353Z,98313.16
2023-09-12T01:17:16.241Z,98304.81
2023-09-12T01:19:44.106Z,98298.91
2023-09-12T01:22:29.572Z,98293.03
2023-09-12T01:25:16.203Z,98284.53
2023-09-12T01:27:48.219Z,98283.03
2023-09-12T01:30:20.251Z,98270.13
2023-09-12T01:32:49.182Z,98272.72
2023-09-12T01:35:17.157Z,98272.06
2023-09-12T01:37:44.966Z,98267.81
2023-09-12T01:40:14.176Z,98267.13
2023-09-12T01:42:47.000Z,98253.56
2023-09-12T01:45:19.849Z,98240.81
2023-09-12T01:47:51.809Z,98233.28
2023-09-12T01:50:21.227Z,98217.94
2023-09-12T01:52:50.972Z,98209.44
2023-09-12T01:55:19.950Z,98194.91
2023-09-12T01:57:50.903Z,98184.94
2023-09-12T02:00:20.280Z,98183.41
2023-09-12T02:02:48.258Z,98173.94
2023-09-12T02:05:19.805Z,98167.25
2023-09-12T02:07:48.552Z,98161.22
2023-09-12T02:10:17.038Z,98165.72
2023-09-12T02:12:45.378Z,98153.69
2023-09-12T02:15:15.008Z,98146.16
2023-09-12T02:17:42.964Z,98136.00
2023-09-12T02:20:12.480Z,98135.19
2023-09-12T02:22:40.339Z,98133.56
2023-09-12T02:25:09.588Z,98125.06
2023-09-12T02:27:37.599Z,98126.97
2023-09-12T02:30:06.767Z,98120.13
2023-09-12T02:32:36.049Z,98114.22
2023-09-12T02:35:03.967Z,98114.38
2023-09-12T02:37:31.905Z,98103.13
2023-09-12T02:39:59.732Z,98107.66
2023-09-12T02:42:27.635Z,98098.34
2023-09-12T02:44:55.523Z,98082.19
2023-09-12T02:47:23.330Z,98070.28
2023-09-12T02:49:53.171Z,98068.78
2023-09-12T02:52:21.063Z,98058.50
2023-09-12T02:54:49.725Z,98051.81
2023-09-12T02:57:17.854Z,98044.28
2023-09-12T02:59:46.988Z,98034.97
2023-09-12T03:02:15.426Z,98036.75
2023-09-12T03:04:43.371Z,98027.31
2023-09-12T03:07:12.594Z,98021.56
2023-09-12T03:09:41.165Z,98007.88
2023-09-12T03:12:09.340Z,98002.97
2023-09-12T03:14:37.219Z,97987.63
2023-09-12T03:17:05.537Z,97980.13
2023-09-12T03:19:34.729Z,97968.19
2023-09-12T03:22:02.571Z,97965.75
2023-09-12T03:24:32.284Z,97966.56
2023-09-12T03:27:00.233Z,97966.56
2023-09-12T03:29:28.180Z,97959.03
2023-09-12T03:31:56.115Z,97960.00
2023-09-12T03:34:23.985Z,97958.38
2023-09-12T03:36:51.885Z,97953.28
2023-09-12T03:39:19.712Z,97942.38
2023-09-12T03:41:48.860Z,97927.03
2023-09-12T03:44:17.024Z,97916.09
2023-09-12T03:46:45.052Z,97912.00
2023-09-12T03:49:13.847Z,97914.63
2023-09-12T03:51:41.951Z,97912.94
2023-09-12T03:54:09.991Z,97909.69
2023-09-12T03:56:37.914Z,97906.25
2023-09-12T03:59:08.015Z,97907.06
2023-09-12T04:01:36.301Z,97911.31
2023-09-12T04:04:04.838Z,97918.16
2023-09-12T04:06:32.969Z,97919.09
2023-09-12T04:09:00.879Z,97916.50
2023-09-12T04:11:43.667Z,97917.47
2023-09-12T04:14:16.748Z,97915.03
2023-09-12T04:16:44.833Z,97914.19
2023-09-12T04:19:12.756Z,97915.03
2023-09-12T04:21:40.752Z,97915.84
2023-09-12T04:24:09.901Z,97929.66
2023-09-12T04:26:37.788Z,97923.63
2023-09-12T04:29:06.142Z,97924.59
2023-09-12T04:31:35.429Z,97912.56
2023-09-12T04:34:03.332Z,97921.34
2023-09-12T04:36:31.228Z,97927.34
2023-09-12T04:38:59.130Z,97925.56
2023-09-12T04:41:26.988Z,97939.25
2023-09-12T04:43:54.879Z,97957.97
2023-09-12T04:46:22.749Z,97972.50
2023-09-12T04:48:52.215Z,97986.00
2023-09-12T04:51:20.055Z,97983.41
2023-09-12T04:53:52.578Z,97987.81
2023-09-12T04:56:20.755Z,97978.50
2023-09-12T04:58:49.314Z,97968.38
2023-09-12T05:01:17.487Z,97960.72
2023-09-12T05:03:45.486Z,97964.94
2023-09-12T05:06:15.422Z,97978.66
2023-09-12T05:08:43.559Z,97992.31
2023-09-12T05:11:11.632Z,97993.97
2023-09-12T05:13:40.725Z,97999.97
2023-09-12T05:16:08.644Z,97998.34
2023-09-12T05:18:36.534Z,97997.53
2023-09-12T05:21:04.875Z,98006.97
2023-09-12T05:23:34.253Z,98011.19
2023-09-12T05:26:02.127Z,98027.50
2023-09-12T05:28:29.986Z,98020.53
2023-09-12T05:30:58.135Z,98036.81
2023-09-12T05:33:26.068Z,98046.25
2023-09-12T05:35:54.394Z,98050.47
2023-09-12T05:38:22.220Z,98069.25
2023-09-12T05:40:51.990Z,98080.19
2023-09-12T05:43:20.291Z,98106.75
2023-09-12T05:45:48.729Z,98116.06
2023-09-12T05:48:16.845Z,98138.09
2023-09-12T05:50:45.596Z,98167.00
2023-09-12T05:53:13.439Z,98197.66
2023-09-12T05:55:41.256Z,98228.34
2023-09-12T05:58:10.488Z,98254.66
2023-09-12T06:00:38.630Z,98275.06
2023-09-12T06:03:06.725Z,98308.38
2023-09-12T06:05:34.701Z,98333.06
2023-09-12T06:08:02.588Z,98363.75
2023-09-12T06:10:30.422Z,98393.50
2023-09-12T06:12:58.275Z,98419.00
2023-09-12T06:15:27.513Z,98465.91
2023-09-12T06:17:56.162Z,98501.69
2023-09-12T06:20:24.414Z,98538.47
2023-09-12T06:22:52.598Z,98559.59
2023-09-12T06:25:20.547Z,98584.47
2023-09-12T06:27:48.550Z,98604.88
2023-09-12T06:30:16.584Z,98627.97
2023-09-12T06:32:45.920Z,98651.72
2023-09-12T06:35:13.902Z,98678.22
2023-09-12T06:37:41.739Z,98700.44
2023-09-12T06:40:10.421Z,98728.59
2023-09-12T06:42:38.293Z,98765.28
2023-09-12T06:45:06.885Z,98795.94
2023-09-12T06:47:34.803Z,98832.75
2023-09-12T06:50:04.963Z,98861.75
2023-09-12T06:52:34.977Z,98884.00
2023-09-12T06:55:02.797Z,98918.13
2023-09-12T06:57:31.233Z,98932.69
2023-09-12T06:59:59.085Z,98960.06
2023-09-12T07:02:28.654Z,98989.19
2023-09-12T07:04:57.963Z,99011.19
2023-09-12T07:07:27.127Z,99048.88
2023-09-12T07:10:01.674Z,99077.09
2023-09-12T07:12:36.047Z,99116.44
2023-09-12T07:15:04.202Z,99143.69
2023-09-12T07:17:32.074Z,99187.34
2023-09-12T07:20:00.071Z,99234.47
2023-09-12T07:22:29.485Z,99270.97
2023-09-12T07:24:57.364Z,99324.16
2023-09-12T07:27:25.308Z,99372.06
2023-09-12T07:29:53.119Z,99429.44
2023-09-12T07:32:22.557Z,99460.16
2023-09-12T07:34:50.629Z,99498.91
2023-09-12T07:37:18.440Z,99533.81
2023-09-12T07:39:47.635Z,99572.41
2023-09-12T07:42:15.534Z,99608.41
2023-09-12T07:44:43.397Z,99646.13
2023-09-12T07:47:11.276Z,99686.44
2023-09-12T07:49:39.107Z,99728.53
2023-09-12T07:52:07.876Z,99755.06
2023-09-12T07:54:35.914Z,99785.84
2023-09-12T07:57:05.653Z,99802.13
2023-09-12T07:59:33.438Z,99820.25
2023-09-12T08:02:01.381Z,99839.00
2023-09-12T08:04:29.350Z,99850.19
2023-09-12T08:06:58.823Z,99871.75
2023-09-12T08:09:52.609Z,99888.88
2023-09-12T08:12:23.301Z,99899.13
2023-09-12T08:14:51.135Z,99944.69
2023-09-12T08:17:19.495Z,99974.69
2023-09-12T08:19:47.715Z,100006.38
2023-09-12T08:22:15.797Z,100045.94
2023-09-12T08:24:43.680Z,100076.78
2023-09-12T08:27:11.531Z,100106.94
2023-09-12T08:29:40.776Z,100149.09
2023-09-12T08:32:08.637Z,100192.88
2023-09-12T08:34:36.541Z,100219.47
2023-09-12T08:37:04.433Z,100270.34
2023-09-12T08:39:44.706Z,100314.09
2023-09-12T08:42:15.642Z,100345.84
2023-09-12T08:44:45.731Z,100384.59
2023-09-12T08:47:14.129Z,100420.78
2023-09-12T08:49:43.560Z,100445.63
2023-09-12T08:52:12.543Z,100481.78
2023-09-12T08:54:40.595Z,100524.78
2023-09-12T08:57:09.451Z,100561.94
2023-09-12T08:59:37.948Z,100592.75
2023-09-12T09:02:10.896Z,100622.97
2023-09-12T09:04:41.956Z,100655.69
2023-09-12T09:07:11.879Z,100689.16
2023-09-12T09:09:40.356Z,100734.81
2023-09-12T09:12:09.769Z,100780.53
2023-09-12T09:14:37.586Z,100822.00
2023-09-12T09:17:10.633Z,100844.34
2023-09-12T09:19:44.050Z,100866.59
2023-09-12T09:22:11.984Z,100879.53
2023-09-12T09:24:39.985Z,100895.09
2023-09-12T09:27:07.915Z,100914.84
2023-09-12T09:29:49.085Z,100939.00
2023-09-12T09:32:23.230Z,100972.66
2023-09-12T09:34:51.528Z,101002.81
2023-09-12T09:37:20.824Z,101029.50
2023-09-12T09:39:53.301Z,101053.66
2023-09-12T09:42:21.864Z,101073.44
2023-09-12T09:44:50.654Z,101096.72
2023-09-12T09:47:21.948Z,101104.50
2023-09-12T09:49:50.075Z,101120.09
2023-09-12T09:52:17.968Z,101149.41
2023-09-12T09:54:47.041Z,101168.25
2023-09-12T09:57:14.944Z,101201.06
2023-09-12T09:59:43.802Z,101254.66
2023-09-12T10:02:22.482Z,101273.59
2023-09-12T10:07:27.343Z,101263.28
2023-09-12T10:09:55.770Z,101260.63
2023-09-12T10:12:25.091Z,101249.28
2023-09-12T10:14:53.710Z,101240.66
2023-09-12T10:17:25.676Z,101245.81
2023-09-12T10:19:58.178Z,101237.91
2023-09-12T10:22:30.190Z,101254.34
2023-09-12T10:24:58.603Z,101277.69
2023-09-12T10:27:27.194Z,101250.63
2023-09-12T10:29:55.276Z,101266.19
2023-09-12T10:32:23.933Z,101273.91
2023-09-12T10:34:54.077Z,101319.81
2023-09-12T10:37:26.942Z,101385.56
2023-09-12T10:39:55.515Z,101409.69
2023-09-12T10:42:25.702Z,101447.59
2023-09-12T10:44:54.060Z,101498.72
2023-09-12T10:47:22.685Z,101564.47
2023-09-12T10:49:50.815Z,101638.84
2023-09-12T10:52:27.972Z,101710.69
2023-09-12T10:54:56.451Z,101793.09
2023-09-12T10:57:24.504Z,101861.56
2023-09-12T11:00:13.064Z,101932.63
2023-09-12T11:02:43.152Z,101982.78
2023-09-12T11:05:38.703Z,102032.28
2023-09-12T11:08:08.018Z,102091.28
2023-09-12T11:10:35.927Z,102151.97
2023-09-12T11:13:04.683Z,102218.88
2023-09-12T11:15:33.080Z,102287.38
2023-09-12T11:18:06.147Z,102325.50
2023-09-12T11:20:55.111Z,102283.66
2023-09-12T11:23:24.407Z,102228.88
2023-09-12T11:26:06.116Z,102148.81
2023-09-12T11:28:34.233Z,102071.44
2023-09-12T11:31:02.445Z,102030.63
2023-09-12T11:33:30.735Z,101971.56
2023-09-12T11:36:03.027Z,101913.22
2023-09-12T11:38:33.397Z,101867.16
2023-09-12T11:41:01.954Z,101833.38
2023-09-12T11:43:30.560Z,101820.16
2023-09-12T11:45:59.408Z,101807.94
2023-09-12T11:48:27.670Z,101813.09
2023-09-12T11:50:57.161Z,101836.44
2023-09-12T11:53:27.812Z,101876.16
2023-09-12T11:55:59.696Z,101880.59
2023-09-12T11:58:28.700Z,101897.75
2023-09-12T12:00:57.951Z,101889.91
2023-09-12T12:03:27.595Z,101905.56
2023-09-12T12:05:57.597Z,101925.31
2023-09-12T12:08:32.070Z,101994.75
2023-09-12T12:11:02.311Z,102039.66
2023-09-12T12:13:30.798Z,102083.97
2023-09-12T12:15:59.053Z,102080.38
2023-09-12T12:18:27.561Z,102107.22
2023-09-12T12:20:55.892Z,102130.59
2023-09-12T12:23:24.038Z,102165.22
2023-09-12T12:25:51.870Z,102192.09
2023-09-12T12:28:22.205Z,102225.94
2023-09-12T12:30:55.859Z,102206.72
2023-09-12T12:34:20.436Z,102230.94
2023-09-12T12:36:11.928Z,102250.81
2023-09-12T12:38:53.387Z,102260.38
2023-09-12T12:41:30.963Z,102280.16
2023-09-12T12:44:04.606Z,102308.75
2023-09-12T12:46:32.840Z,102356.59
2023-09-12T12:49:00.723Z,102352.03
2023-09-12T12:51:31.085Z,102373.75
2023-09-12T12:54:06.696Z,102370.06
2023-09-12T12:56:34.708Z,102376.97
2023-09-12T12:59:07.824Z,102382.06
2023-09-12T13:01:37.493Z,102377.50
2023-09-12T13:04:07.322Z,102358.25
2023-09-12T13:06:37.054Z,102375.72
2023-09-12T13:09:06.928Z,102404.31
2023-09-12T13:11:35.848Z,102404.97
2023-09-12T13:14:10.341Z,102410.91
2023-09-12T13:16:38.404Z,102449.16
2023-09-12T13:19:06.370Z,102492.59
2023-09-12T13:21:34.429Z,102502.06
2023-09-12T13:24:03.156Z,102485.50
2023-09-12T13:26:32.093Z,102453.09
2023-09-12T13:28:59.935Z,102457.34
2023-09-12T13:31:29.104Z,102453.75
2023-09-12T13:33:57.156Z,102453.75
2023-09-12T13:36:25.530Z,102440.41
2023-09-12T13:38:53.578Z,102462.25
2023-09-12T13:41:23.290Z,102461.19
2023-09-12T13:43:51.269Z,102494.97
2023-09-12T13:46:19.337Z,102530.63
2023-09-12T13:48:50.039Z,102545.25
2023-09-12T13:51:18.159Z,102561.59
2023-09-12T13:53:49.166Z,102535.44
2023-09-12T13:56:17.011Z,102528.34
2023-09-12T13:58:51.908Z,102548.25
2023-09-12T14:01:33.165Z,102550.81
2023-09-12T14:04:05.041Z,102551.44
2023-09-12T14:06:35.832Z,102480.84
2023-09-12T14:09:04.114Z,102446.78
2023-09-12T14:11:35.582Z,102449.28
2023-09-12T14:14:16.013Z,102472.59
2023-09-12T14:16:48.113Z,102535.16
2023-09-12T14:19:17.919Z,102580.41
2023-09-12T14:21:47.117Z,102616.88
2023-09-12T14:24:16.791Z,102670.78
2023-09-12T14:26:46.027Z,102690.66
2023-09-12T14:29:15.029Z,102713.28
2023-09-12T14:31:51.252Z,102722.75
2023-09-12T14:34:20.861Z,102755.00
2023-09-12T14:36:48.963Z,102707.69
2023-09-12T14:39:17.115Z,102687.50
2023-09-12T14:41:50.845Z,102644.63
2023-09-12T14:44:18.843Z,102623.63
2023-09-12T14:46:46.815Z,102602.53
2023-09-12T14:49:14.930Z,102592.88
2023-09-12T14:51:44.285Z,102585.78
2023-09-12T14:54:12.188Z,102522.00
2023-09-12T14:56:40.038Z,102480.25
2023-09-12T14:59:08.051Z,102384.34
2023-09-12T15:01:36.573Z,102321.63
2023-09-12T15:04:04.677Z,102252.72
2023-09-12T15:06:34.512Z,102192.69
2023-09-12T15:09:04.025Z,102127.38
2023-09-12T15:11:32.385Z,102063.75
2023-09-12T15:14:00.643Z,102014.16
2023-09-12T15:16:28.624Z,101975.13
2023-09-12T15:18:56.642Z,101952.38
2023-09-12T15:21:24.529Z,101948.03
2023-09-12T15:23:52.430Z,101907.94
2023-09-12T15:26:21.744Z,101874.84
2023-09-12T15:28:49.574Z,101849.69
2023-09-12T15:31:17.420Z,101802.66
2023-09-12T15:33:45.821Z,101756.69
2023-09-12T15:36:14.011Z,101707.97
2023-09-12T15:38:41.825Z,101645.47
2023-09-12T15:41:09.881Z,101608.09
2023-09-12T15:43:39.183Z,101568.16
2023-09-12T15:46:07.245Z,101528.22
2023-09-12T15:48:35.257Z,101479.69
2023-09-12T15:51:05.378Z,101432.88
2023-09-12T15:53:33.269Z,101372.09
2023-09-12T15:56:01.111Z,101331.41
2023-09-12T15:58:30.276Z,101289.75
2023-09-12T16:01:01.121Z,101262.97
2023-09-12T16:03:29.211Z,101221.31
2023-09-12T16:05:57.121Z,101179.81
2023-09-12T16:08:24.954Z,101140.81
2023-09-12T16:10:53.049Z,101102.69
2023-09-12T16:13:21.076Z,101073.19
2023-09-12T16:15:48.910Z,101042.25
2023-09-12T16:18:18.173Z,101005.81
2023-09-12T16:20:46.030Z,100981.59
2023-09-12T16:23:13.890Z,100967.84
2023-09-12T16:25:41.702Z,100947.09
2023-09-12T16:28:09.577Z,100925.56
2023-09-12T16:30:38.830Z,100893.44
2023-09-12T16:33:07.482Z,100863.22
2023-09-12T16:35:36.721Z,100833.88
2023-09-12T16:38:04.760Z,100814.00
2023-09-12T16:40:33.468Z,100795.78
2023-09-12T16:43:01.341Z,100766.34
2023-09-12T16:45:29.240Z,100738.56
2023-09-12T16:47:57.364Z,100722.44
2023-09-12T16:50:26.995Z,100693.94
2023-09-12T16:52:56.189Z,100661.84
2023-09-12T16:55:24.012Z,100646.44
2023-09-12T16:57:51.856Z,100617.97
2023-09-12T17:00:19.871Z,100592.13
2023-09-12T17:02:47.843Z,100572.28
2023-09-12T17:05:15.843Z,100538.53
2023-09-12T17:07:44.078Z,100520.47
2023-09-12T17:10:13.252Z,100500.75
2023-09-12T17:12:41.168Z,100473.00
2023-09-12T17:15:12.758Z,100452.47
2023-09-12T17:17:40.631Z,100428.31
2023-09-12T17:20:09.216Z,100414.59
2023-09-12T17:22:37.112Z,100393.06
2023-09-12T17:25:05.353Z,100370.63
2023-09-12T17:27:36.330Z,100348.16
2023-09-12T17:30:06.413Z,100328.31
2023-09-12T17:32:34.293Z,100317.22
2023-09-12T17:35:03.930Z,100309.47
2023-09-12T17:37:31.885Z,100298.19
2023-09-12T17:39:59.742Z,100296.69
2023-09-12T17:42:28.322Z,100274.09
2023-09-12T17:44:57.546Z,100257.72
2023-09-12T17:47:25.450Z,100251.06
2023-09-12T17:49:57.401Z,100232.81
2023-09-12T17:52:25.338Z,100212.28
2023-09-12T17:54:53.239Z,100184.66
2023-09-12T17:57:21.134Z,100158.88
2023-09-12T17:59:49.599Z,100146.13
2023-09-12T18:02:18.815Z,100116.78
2023-09-12T18:04:46.688Z,100096.25
2023-09-12T18:07:14.614Z,100074.78
2023-09-12T18:09:42.429Z,100063.72
2023-09-12T18:12:10.273Z,100032.56
2023-09-12T18:14:38.118Z,100020.53
2023-09-12T18:17:06.354Z,100010.41
2023-09-12T18:19:36.480Z,99986.19
2023-09-12T18:22:04.974Z,99977.72
2023-09-12T18:24:33.079Z,99952.78
2023-09-12T18:27:00.945Z,99936.63
2023-09-12T18:29:28.795Z,99908.94
2023-09-12T18:31:56.648Z,99894.44
2023-09-12T18:34:24.430Z,99877.22
2023-09-12T18:36:55.143Z,99864.38
2023-09-12T18:39:23.016Z,99854.25
2023-09-12T18:41:50.937Z,99830.19
2023-09-12T18:44:18.779Z,99814.56
2023-09-12T18:46:46.703Z,99800.88
2023-09-12T18:49:14.626Z,99789.78
2023-09-12T18:51:42.582Z,99778.75
2023-09-12T18:54:19.677Z,99747.63
2023-09-12T18:56:47.527Z,99740.03
2023-09-12T18:59:15.387Z,99727.31
2023-09-12T19:01:44.220Z,99695.38
2023-09-12T19:04:25.382Z,99692.34
2023-09-12T19:06:53.636Z,99669.09
2023-09-12T19:09:23.224Z,99658.91
2023-09-12T19:11:51.454Z,99640.91
2023-09-12T19:14:19.320Z,99619.34
2023-09-12T19:16:47.512Z,99609.28
2023-09-12T19:19:15.421Z,99585.91
2023-09-12T19:21:43.480Z,99584.41
2023-09-12T19:24:12.010Z,99573.38
2023-09-12T19:26:41.316Z,99563.94
2023-09-12T19:29:09.184Z,99555.38
2023-09-12T19:31:37.174Z,99550.25
2023-09-12T19:34:06.385Z,99540.84
2023-09-12T19:36:34.306Z,99533.28
2023-09-12T19:39:02.788Z,99528.16
2023-09-12T19:41:30.917Z,99513.66
2023-09-12T19:44:00.271Z,99507.72
2023-09-12T19:46:28.202Z,99494.91
2023-09-12T19:48:56.240Z,99473.34
2023-09-12T19:51:24.184Z,99467.41
2023-09-12T19:53:52.301Z,99463.25
2023-09-12T19:56:20.173Z,99459.94
2023-09-12T19:58:47.989Z,99457.47
2023-09-12T20:01:17.316Z,99456.63
2023-09-12T20:03:45.430Z,99450.56
2023-09-12T20:06:13.577Z,99452.50
2023-09-12T20:08:41.428Z,99442.13
2023-09-12T20:11:10.167Z,99443.94
2023-09-12T20:13:38.017Z,99438.81
2023-09-12T20:16:06.295Z,99432.06
2023-09-12T20:18:35.623Z,99424.34
2023-09-12T20:21:04.051Z,99414.13
2023-09-12T20:23:31.890Z,99402.25
2023-09-12T20:26:01.869Z,99398.09
2023-09-12T20:28:30.289Z,99384.31
2023-09-12T20:30:58.277Z,99374.09
2023-09-12T20:33:26.159Z,99359.63
2023-09-12T20:35:55.634Z,99341.81
2023-09-12T20:38:23.820Z,99335.06
2023-09-12T20:40:51.667Z,99319.50
2023-09-12T20:43:19.552Z,99310.22
2023-09-12T20:45:48.753Z,99294.09
2023-09-12T20:48:18.951Z,99273.41
2023-09-12T20:50:47.087Z,99265.78
2023-09-12T20:53:17.905Z,99261.66
2023-09-12T20:55:46.222Z,99240.16
2023-09-12T20:58:14.342Z,99227.47
2023-09-12T21:00:42.532Z,99207.88
2023-09-12T21:03:10.680Z,99186.53
2023-09-12T21:05:38.692Z,99170.41
2023-09-12T21:08:06.676Z,99146.41
2023-09-12T21:10:35.912Z,99116.66
2023-09-12T21:13:03.850Z,99089.38
2023-09-12T21:15:32.632Z,99066.38
2023-09-12T21:18:00.671Z,99054.41
2023-09-12T21:20:28.500Z,99049.44
2023-09-12T21:22:56.453Z,99032.38
2023-09-12T21:25:24.999Z,99020.53
2023-09-12T21:27:54.221Z,99013.78
2023-09-12T21:30:22.171Z,99011.44
2023-09-12T21:32:50.072Z,98995.03
2023-09-12T21:35:19.812Z,98991.06
2023-09-12T21:37:48.995Z,98979.91
2023-09-12T21:40:17.430Z,98971.53
2023-09-12T21:42:45.749Z,98955.22
2023-09-12T21:45:16.066Z,98940.78
2023-09-12T21:47:45.145Z,98923.72
2023-09-12T21:50:13.788Z,98925.66
2023-09-12T21:52:42.101Z,98921.38
2023-09-12T21:55:10.680Z,98914.66
2023-09-12T21:57:38.726Z,98907.06
2023-09-12T22:00:19.517Z,98896.91
2023-09-12T22:06:36.198Z,98869.91
2023-09-12T22:09:05.977Z,98779.44
2023-09-12T22:11:33.998Z,98561.31
2023-09-12T22:14:01.807Z,98414.16
2023-09-12T22:16:29.743Z,98308.81
2023-09-12T22:18:57.757Z,98224.56
2023-09-12T22:21:25.659Z,98153.31
2023-09-12T22:23:54.812Z,98146.59
2023-09-12T22:26:22.657Z,98150.03
2023-09-12T22:28:50.444Z,98167.19
2023-09-12T22:31:18.366Z,98173.22
2023-09-12T22:33:46.493Z,98178.28
2023-09-12T22:36:19.383Z,98177.59
2023-09-12T22:38:48.016Z,98185.44
2023-09-12T22:41:17.526Z,98180.22
2023-09-12T22:43:45.615Z,98189.97
2023-09-12T22:46:13.758Z,98200.25
2023-09-12T22:48:41.699Z,98186.50
2023-09-12T22:51:09.606Z,98188.31
2023-09-12T22:53:37.427Z,98197.91
2023-09-12T22:56:05.482Z,98201.34
2023-09-12T22:58:34.647Z,98205.72
2023-09-12T23:01:03.840Z,98208.34
2023-09-12T23:03:31.850Z,98202.44
2023-09-12T23:06:01.666Z,98200.00
2023-09-12T23:08:29.507Z,98202.59
2023-09-12T23:10:57.318Z,98204.53
2023-09-12T23:13:25.152Z,98192.75
2023-09-12T23:15:54.775Z,98183.44
2023-09-12T23:18:22.642Z,98174.25
2023-09-12T23:20:50.469Z,98163.31
2023-09-12T23:23:18.323Z,98141.25
2023-09-12T23:25:46.106Z,98130.28
2023-09-12T23:28:14.113Z,98107.41
2023-09-12T23:30:42.661Z,98102.34
2023-09-12T23:33:11.982Z,98108.50
2023-09-12T23:35:43.326Z,98093.34
2023-09-12T23:38:12.050Z,98083.03
2023-09-12T23:40:39.847Z,98091.00
2023-09-12T23:43:07.740Z,98099.47
2023-09-12T23:45:35.629Z,98097.03
2023-09-12T23:48:04.539Z,98084.28
2023-09-12T23:50:34.038Z,98092.94
2023-09-12T23:53:01.878Z,98102.38
2023-09-12T23:55:29.769Z,98108.41
2023-09-12T23:57:57.672Z,98107.59
